createdAt,value
2018-11-13T00:00:31.922Z,18.67
2018-11-13T00:03:01.391Z,16.50
2018-11-13T00:05:30.202Z,17.70
2018-11-13T00:07:58.741Z,18.73
2018-11-13T00:10:27.332Z,17.53
2018-11-13T00:12:55.901Z,17.63
2018-11-13T00:15:24.510Z,16.80
2018-11-13T00:17:53.081Z,18.33
2018-11-13T00:20:21.622Z,19.40
2018-11-13T00:22:50.186Z,21.33
2018-11-13T00:25:19.899Z,21.33
2018-11-13T00:27:48.584Z,17.47
2018-11-13T00:30:23.649Z,22.37
2018-11-13T00:32:52.346Z,21.07
2018-11-13T00:35:21.497Z,20.60
2018-11-13T00:37:50.604Z,20.10
2018-11-13T00:40:19.475Z,19.73
2018-11-13T00:42:48.621Z,19.50
2018-11-13T00:45:17.240Z,16.70
2018-11-13T00:47:45.762Z,18.87
2018-11-13T00:50:16.081Z,17.47
2018-11-13T00:52:46.303Z,16.87
2018-11-13T00:55:15.270Z,14.77
2018-11-13T00:57:44.086Z,14.40
2018-11-13T01:00:15.591Z,15.17
2018-11-13T01:02:44.535Z,14.97
2018-11-13T01:05:14.833Z,13.20
2018-11-13T01:07:44.507Z,13.57
2018-11-13T01:10:14.162Z,13.40
2018-11-13T01:12:43.884Z,14.27
2018-11-13T01:15:14.105Z,13.87
2018-11-13T01:17:44.316Z,13.73
2018-11-13T01:20:13.398Z,13.10
2018-11-13T01:22:41.995Z,13.37
2018-11-13T01:25:11.902Z,15.10
2018-11-13T01:27:41.042Z,14.20
2018-11-13T01:30:11.033Z,14.17
2018-11-13T01:32:40.757Z,14.13
2018-11-13T01:35:10.862Z,13.07
2018-11-13T01:37:39.455Z,14.73
2018-11-13T01:40:12.712Z,15.17
2018-11-13T01:42:41.744Z,13.53
2018-11-13T01:45:12.662Z,13.50
2018-11-13T01:47:41.404Z,13.50
2018-11-13T01:50:10.768Z,13.40
2018-11-13T01:52:39.351Z,13.80
2018-11-13T01:55:10.310Z,13.77
2018-11-13T01:57:39.078Z,12.90
2018-11-13T02:00:16.521Z,12.83
2018-11-13T02:02:47.118Z,12.10
2018-11-13T02:05:16.167Z,12.67
2018-11-13T02:07:44.749Z,13.33
2018-11-13T02:10:13.359Z,13.87
2018-11-13T02:12:41.915Z,12.43
2018-11-13T02:15:10.844Z,11.87
2018-11-13T02:17:39.512Z,12.30
2018-11-13T02:20:10.458Z,11.63
2018-11-13T02:22:39.442Z,11.60
2018-11-13T02:25:10.330Z,11.23
2018-11-13T02:27:38.950Z,10.67
2018-11-13T02:30:09.171Z,11.07
2018-11-13T02:32:37.710Z,10.67
2018-11-13T02:35:07.532Z,10.50
2018-11-13T02:37:36.125Z,8.50
2018-11-13T02:40:05.505Z,8.87
2018-11-13T02:42:34.893Z,9.30
2018-11-13T02:45:03.691Z,9.07
2018-11-13T02:47:32.963Z,8.20
2018-11-13T02:50:01.509Z,8.03
2018-11-13T02:52:30.053Z,8.43
2018-11-13T02:54:58.619Z,8.00
2018-11-13T02:57:27.171Z,8.67
2018-11-13T02:59:55.752Z,9.23
2018-11-13T03:02:24.294Z,8.73
2018-11-13T03:04:52.924Z,8.30
2018-11-13T03:07:21.620Z,7.63
2018-11-13T03:09:50.238Z,7.80
2018-11-13T03:12:18.820Z,6.90
2018-11-13T03:14:47.379Z,6.90
2018-11-13T03:17:16.014Z,6.97
2018-11-13T03:19:44.568Z,6.97
2018-11-13T03:22:13.127Z,7.70
2018-11-13T03:24:41.695Z,6.50
2018-11-13T03:27:10.247Z,6.50
2018-11-13T03:29:38.837Z,5.90
2018-11-13T03:32:07.416Z,5.97
2018-11-13T03:34:35.966Z,6.10
2018-11-13T03:37:04.844Z,6.30
2018-11-13T03:39:33.441Z,5.70
2018-11-13T03:42:02.114Z,6.50
2018-11-13T03:44:30.674Z,6.03
2018-11-13T03:46:59.215Z,6.63
2018-11-13T03:49:27.779Z,6.23
2018-11-13T03:51:56.310Z,5.10
2018-11-13T03:54:24.883Z,5.40
2018-11-13T03:56:53.428Z,5.20
2018-11-13T03:59:22.107Z,5.53
2018-11-13T04:01:50.697Z,4.80
2018-11-13T04:04:19.230Z,4.73
2018-11-13T04:06:47.785Z,4.70
2018-11-13T04:09:16.323Z,5.20
2018-11-13T04:11:44.882Z,3.80
2018-11-13T04:14:13.390Z,4.37
2018-11-13T04:16:41.933Z,4.20
2018-11-13T04:19:10.455Z,4.33
2018-11-13T04:21:39.011Z,4.40
2018-11-13T04:24:07.579Z,4.20
2018-11-13T04:26:36.134Z,4.27
2018-11-13T04:29:04.695Z,4.33
2018-11-13T04:31:33.234Z,3.90
2018-11-13T04:34:01.761Z,4.30
2018-11-13T04:36:30.392Z,4.27
2018-11-13T04:38:58.905Z,3.77
2018-11-13T04:41:27.446Z,3.93
2018-11-13T04:43:55.943Z,3.90
2018-11-13T04:46:24.471Z,4.57
2018-11-13T04:48:52.987Z,4.20
2018-11-13T04:51:21.550Z,4.30
2018-11-13T04:53:50.072Z,4.43
2018-11-13T04:56:18.622Z,4.33
2018-11-13T04:58:47.225Z,4.20
2018-11-13T05:01:15.793Z,4.73
2018-11-13T05:03:44.306Z,4.47
2018-11-13T05:06:12.943Z,4.47
2018-11-13T05:08:41.449Z,3.87
2018-11-13T05:13:49.234Z,4.33
2018-11-13T05:16:17.774Z,4.30
2018-11-13T05:18:46.291Z,4.23
2018-11-13T05:21:14.843Z,4.33
2018-11-13T05:23:43.365Z,4.40
2018-11-13T05:26:11.930Z,5.20
2018-11-13T05:28:40.600Z,5.40
2018-11-13T05:31:09.126Z,7.23
2018-11-13T05:33:37.730Z,8.37
2018-11-13T05:36:06.713Z,8.13
2018-11-13T05:38:35.230Z,8.67
2018-11-13T05:41:03.783Z,6.20
2018-11-13T05:43:32.314Z,7.70
2018-11-13T05:46:00.861Z,6.43
2018-11-13T05:48:29.660Z,6.50
2018-11-13T05:50:58.185Z,7.70
2018-11-13T05:53:26.730Z,6.60
2018-11-13T05:55:55.273Z,8.50
2018-11-13T05:58:24.549Z,9.17
2018-11-13T06:00:53.075Z,9.10
2018-11-13T06:03:21.618Z,9.87
2018-11-13T06:05:50.164Z,10.50
2018-11-13T06:08:19.459Z,10.60
2018-11-13T06:10:48.107Z,8.70
2018-11-13T06:13:16.846Z,7.43
2018-11-13T06:15:45.414Z,6.00
2018-11-13T06:18:14.033Z,6.67
2018-11-13T06:20:42.535Z,6.23
2018-11-13T06:23:11.175Z,5.70
2018-11-13T06:25:40.225Z,5.50
2018-11-13T06:28:08.888Z,5.80
2018-11-13T06:30:37.441Z,5.87
2018-11-13T06:33:06.540Z,5.70
2018-11-13T06:35:35.096Z,6.20
2018-11-13T06:38:03.668Z,6.07
2018-11-13T06:40:32.238Z,6.10
2018-11-13T06:43:00.890Z,6.47
2018-11-13T06:45:29.504Z,6.10
2018-11-13T06:47:58.078Z,6.33
2018-11-13T06:50:26.919Z,6.30
2018-11-13T06:52:55.493Z,6.30
2018-11-13T06:55:28.989Z,7.13
2018-11-13T06:57:57.729Z,6.67
2018-11-13T07:00:26.264Z,6.57
2018-11-13T07:02:54.833Z,6.97
2018-11-13T07:05:23.373Z,6.87
2018-11-13T07:07:51.980Z,6.00
2018-11-13T07:10:23.999Z,6.33
2018-11-13T07:12:53.377Z,6.00
2018-11-13T07:15:23.045Z,6.90
2018-11-13T07:17:54.025Z,6.87
2018-11-13T07:20:23.694Z,6.70
2018-11-13T07:22:52.237Z,7.00
2018-11-13T07:25:21.228Z,7.33
2018-11-13T07:27:49.843Z,6.70
2018-11-13T07:30:19.737Z,6.47
2018-11-13T07:32:48.310Z,7.20
2018-11-13T07:35:18.029Z,7.17
2018-11-13T07:37:53.206Z,7.07
2018-11-13T07:40:22.118Z,8.40
2018-11-13T07:42:50.657Z,8.97
2018-11-13T07:45:19.550Z,8.03
2018-11-13T07:47:48.682Z,7.90
2018-11-13T07:50:17.573Z,9.57
2018-11-13T07:52:46.363Z,6.33
2018-11-13T07:55:16.040Z,5.87
2018-11-13T07:57:44.749Z,7.13
2018-11-13T08:00:16.446Z,6.30
2018-11-13T08:02:46.623Z,7.50
2018-11-13T08:05:15.207Z,6.23
2018-11-13T08:07:43.732Z,6.37
2018-11-13T08:10:13.226Z,5.17
2018-11-13T08:12:41.866Z,6.07
2018-11-13T08:15:12.630Z,6.47
2018-11-13T08:17:41.602Z,6.50
2018-11-13T08:20:11.974Z,6.27
2018-11-13T08:22:41.021Z,6.97
2018-11-13T08:25:10.583Z,5.65
2018-11-13T08:27:40.405Z,5.43
2018-11-13T08:30:10.954Z,6.03
2018-11-13T08:32:39.538Z,5.47
2018-11-13T08:35:08.675Z,5.53
2018-11-13T08:37:37.316Z,5.23
2018-11-13T08:40:08.323Z,4.80
2018-11-13T08:42:36.894Z,5.40
2018-11-13T08:45:06.592Z,4.40
2018-11-13T08:47:35.187Z,4.53
2018-11-13T08:50:03.855Z,4.90
2018-11-13T08:52:32.392Z,4.23
2018-11-13T08:55:00.986Z,4.13
2018-11-13T08:57:29.534Z,4.47
2018-11-13T08:59:58.138Z,5.03
2018-11-13T09:02:26.686Z,4.63
2018-11-13T09:04:55.297Z,5.00
2018-11-13T09:07:23.847Z,3.63
2018-11-13T09:09:52.407Z,3.30
2018-11-13T09:12:21.110Z,2.90
2018-11-13T09:14:49.588Z,2.83
2018-11-13T09:17:18.110Z,3.13
2018-11-13T09:19:46.731Z,3.07
2018-11-13T09:22:15.226Z,2.90
2018-11-13T09:24:43.817Z,2.50
2018-11-13T09:27:12.811Z,5.00
2018-11-13T09:29:41.378Z,7.50
2018-11-13T09:32:09.903Z,6.73
2018-11-13T09:34:38.451Z,5.10
2018-11-13T09:37:07.063Z,5.23
2018-11-13T09:39:35.565Z,3.80
2018-11-13T09:42:04.336Z,3.57
2018-11-13T09:44:33.637Z,3.80
2018-11-13T09:47:02.222Z,4.00
2018-11-13T09:49:30.746Z,4.20
2018-11-13T09:51:59.389Z,4.03
2018-11-13T09:54:28.020Z,4.80
2018-11-13T09:56:56.553Z,5.03
2018-11-13T09:59:25.075Z,4.47
2018-11-13T10:01:54.111Z,4.60
2018-11-13T10:04:22.610Z,5.00
2018-11-13T10:06:50.753Z,5.00
2018-11-13T10:09:19.659Z,4.23
2018-11-13T10:11:48.266Z,4.83
2018-11-13T10:14:16.798Z,4.50
2018-11-13T10:16:45.375Z,4.50
2018-11-13T10:19:13.958Z,5.40
2018-11-13T10:21:42.551Z,4.40
2018-11-13T10:24:11.174Z,5.40
2018-11-13T10:26:39.847Z,16.67
2018-11-13T10:29:09.285Z,5.47
2018-11-13T10:31:37.877Z,4.43
2018-11-13T10:34:07.062Z,4.00
2018-11-13T10:36:35.610Z,3.77
2018-11-13T10:39:05.635Z,3.53
2018-11-13T10:41:34.269Z,3.47
2018-11-13T10:44:02.762Z,2.97
2018-11-13T10:46:31.402Z,2.60
2018-11-13T10:48:59.982Z,2.53
2018-11-13T10:51:28.578Z,2.23
2018-11-13T10:53:57.139Z,1.83
2018-11-13T10:56:26.002Z,2.27
2018-11-13T10:58:54.521Z,1.90
2018-11-13T11:01:28.438Z,2.03
2018-11-13T11:04:07.189Z,1.70
2018-11-13T11:06:35.790Z,1.90
2018-11-13T11:09:06.680Z,2.00
2018-11-13T11:11:35.265Z,2.07
2018-11-13T11:14:04.268Z,1.90
2018-11-13T11:16:32.516Z,1.60
2018-11-13T11:19:01.364Z,1.97
2018-11-13T11:21:29.770Z,2.23
2018-11-13T11:23:58.414Z,2.10
2018-11-13T11:26:27.006Z,1.90
2018-11-13T11:28:55.558Z,2.20
2018-11-13T11:31:24.103Z,1.93
2018-11-13T11:33:52.676Z,1.83
2018-11-13T11:36:21.254Z,2.00
2018-11-13T11:38:50.192Z,1.90
2018-11-13T11:41:18.671Z,1.70
2018-11-13T11:43:47.215Z,2.00
2018-11-13T11:46:15.773Z,1.70
2018-11-13T11:48:44.334Z,1.70
2018-11-13T11:51:12.917Z,2.20
2018-11-13T11:53:41.589Z,1.90
2018-11-13T11:56:10.117Z,2.30
2018-11-13T11:58:38.665Z,2.07
2018-11-13T12:01:07.234Z,1.40
2018-11-13T12:03:36.250Z,1.90
2018-11-13T12:06:04.801Z,1.90
2018-11-13T12:08:33.354Z,1.80
2018-11-13T12:11:03.281Z,1.53
2018-11-13T12:13:31.849Z,1.27
2018-11-13T12:16:00.355Z,1.40
2018-11-13T12:18:28.916Z,1.33
2018-11-13T12:20:57.466Z,1.00
2018-11-13T12:23:26.075Z,1.10
2018-11-13T12:25:54.700Z,1.17
2018-11-13T12:28:23.177Z,1.30
2018-11-13T12:30:51.710Z,1.43
2018-11-13T12:33:20.249Z,1.30
2018-11-13T12:35:48.786Z,1.20
2018-11-13T12:38:17.335Z,1.10
2018-11-13T12:40:45.954Z,1.20
2018-11-13T12:43:14.545Z,3.23
2018-11-13T12:45:43.118Z,1.30
2018-11-13T12:48:11.666Z,2.90
2018-11-13T12:50:45.467Z,1.60
2018-11-13T12:53:14.062Z,1.43
2018-11-13T12:55:42.672Z,1.10
2018-11-13T12:58:11.256Z,1.10
2018-11-13T13:00:39.772Z,1.80
2018-11-13T13:03:08.313Z,1.60
2018-11-13T13:05:36.836Z,1.40
2018-11-13T13:08:05.900Z,2.67
2018-11-13T13:10:34.409Z,1.63
2018-11-13T13:13:02.996Z,1.47
2018-11-13T13:15:31.878Z,1.27
2018-11-13T13:18:00.891Z,1.00
2018-11-13T13:20:29.422Z,1.77
2018-11-13T13:22:58.481Z,1.00
2018-11-13T13:25:27.018Z,1.20
2018-11-13T13:27:55.539Z,1.70
2018-11-13T13:30:25.282Z,1.00
2018-11-13T13:32:53.883Z,0.90
2018-11-13T13:35:59.437Z,1.40
2018-11-13T13:38:28.119Z,1.17
2018-11-13T13:40:57.999Z,1.03
2018-11-13T13:43:27.415Z,1.20
2018-11-13T13:45:55.954Z,0.97
2018-11-13T13:48:24.906Z,1.10
2018-11-13T13:50:53.774Z,1.40
2018-11-13T13:53:22.957Z,1.40
2018-11-13T13:55:51.791Z,1.20
2018-11-13T13:58:21.267Z,1.70
2018-11-13T14:00:50.345Z,1.67
2018-11-13T14:03:18.862Z,1.53
2018-11-13T14:05:47.807Z,1.97
2018-11-13T14:08:17.130Z,1.20
2018-11-13T14:10:45.741Z,1.40
2018-11-13T14:13:14.818Z,1.50
2018-11-13T14:15:43.513Z,1.00
2018-11-13T14:18:12.310Z,1.20
2018-11-13T14:20:40.874Z,1.10
2018-11-13T14:23:09.519Z,1.20
2018-11-13T14:25:38.082Z,1.03
2018-11-13T14:28:06.668Z,1.43
2018-11-13T14:30:36.554Z,0.97
2018-11-13T14:33:07.172Z,1.10
2018-11-13T14:35:35.857Z,1.10
2018-11-13T14:38:04.449Z,1.07
2018-11-13T14:40:34.662Z,1.10
2018-11-13T14:43:03.549Z,1.17
2018-11-13T14:45:32.374Z,1.17
2018-11-13T14:48:01.240Z,1.20
2018-11-13T14:50:31.378Z,1.20
2018-11-13T14:53:00.181Z,1.07
2018-11-13T14:55:30.401Z,1.20
2018-11-13T14:57:59.865Z,0.90
2018-11-13T15:00:29.716Z,0.93
2018-11-13T15:02:58.910Z,1.00
2018-11-13T15:05:28.217Z,0.90
2018-11-13T15:07:58.338Z,1.90
2018-11-13T15:10:33.402Z,1.00
2018-11-13T15:13:02.128Z,1.33
2018-11-13T15:15:33.994Z,1.17
2018-11-13T15:18:05.173Z,1.00
2018-11-13T15:20:36.001Z,1.13
2018-11-13T15:23:06.691Z,1.10
2018-11-13T15:25:36.416Z,1.10
2018-11-13T15:28:05.647Z,1.00
2018-11-13T15:30:35.787Z,1.07
2018-11-13T15:33:08.921Z,1.17
2018-11-13T15:35:37.522Z,1.13
2018-11-13T15:38:07.258Z,1.03
2018-11-13T15:40:36.145Z,1.10
2018-11-13T15:43:05.002Z,1.60
2018-11-13T15:45:33.638Z,1.20
2018-11-13T15:48:03.312Z,1.00
2018-11-13T15:50:33.241Z,1.80
2018-11-13T15:53:02.385Z,1.30
2018-11-13T15:55:30.959Z,1.43
2018-11-13T15:57:59.993Z,1.77
2018-11-13T16:00:31.575Z,1.90
2018-11-13T16:03:01.764Z,1.60
2018-11-13T16:05:38.979Z,1.30
2018-11-13T16:08:08.484Z,2.20
2018-11-13T16:10:37.043Z,1.40
2018-11-13T16:13:06.030Z,1.83
2018-11-13T16:15:34.732Z,1.10
2018-11-13T16:18:04.774Z,1.00
2018-11-13T16:20:33.372Z,0.97
2018-11-13T16:23:01.929Z,1.27
2018-11-13T16:25:30.500Z,1.60
2018-11-13T16:27:59.041Z,1.60
2018-11-13T16:30:29.508Z,1.50
2018-11-13T16:32:57.893Z,1.33
2018-11-13T16:35:27.423Z,2.17
2018-11-13T16:37:57.177Z,1.50
2018-11-13T16:40:27.036Z,1.20
2018-11-13T16:42:55.574Z,1.93
2018-11-13T16:45:24.934Z,2.50
2018-11-13T16:47:54.088Z,2.50
2018-11-13T16:50:24.857Z,2.03
2018-11-13T16:52:53.427Z,2.47
2018-11-13T16:55:27.278Z,3.20
2018-11-13T16:57:56.557Z,2.03
2018-11-13T17:00:25.520Z,1.77
2018-11-13T17:02:54.041Z,1.90
2018-11-13T17:05:23.499Z,2.60
2018-11-13T17:07:51.959Z,1.80
2018-11-13T17:10:22.854Z,1.90
2018-11-13T17:12:51.841Z,1.80
2018-11-13T17:15:21.893Z,1.90
2018-11-13T17:20:14.889Z,2.10
2018-11-13T17:22:43.898Z,2.03
2018-11-13T17:25:14.046Z,2.33
2018-11-13T17:27:47.517Z,2.13
2018-11-13T17:30:22.971Z,2.33
2018-11-13T17:32:55.656Z,2.27
2018-11-13T17:35:25.891Z,2.00
2018-11-13T17:37:55.305Z,2.50
2018-11-13T17:40:25.817Z,2.37
2018-11-13T17:42:55.495Z,2.40
2018-11-13T17:45:27.600Z,3.30
2018-11-13T17:47:56.179Z,5.30
2018-11-13T17:50:27.228Z,8.70
2018-11-13T17:52:55.801Z,7.90
2018-11-13T17:55:24.600Z,7.17
2018-11-13T17:57:54.692Z,9.90
2018-11-13T18:00:29.083Z,8.50
2018-11-13T18:02:57.700Z,10.63
2018-11-13T18:05:27.175Z,9.50
2018-11-13T18:07:56.810Z,6.67
2018-11-13T18:10:26.036Z,5.23
2018-11-13T18:12:54.617Z,4.83
2018-11-13T18:15:24.438Z,3.70
2018-11-13T18:17:53.093Z,4.40
2018-11-13T18:20:25.909Z,3.87
2018-11-13T18:22:54.453Z,4.10
2018-11-13T18:25:23.047Z,3.70
2018-11-13T18:27:53.250Z,3.93
2018-11-13T18:30:24.025Z,3.60
2018-11-13T18:32:53.214Z,4.00
2018-11-13T18:35:23.241Z,3.80
2018-11-13T18:37:52.637Z,10.57
2018-11-13T18:40:22.041Z,8.00
2018-11-13T18:42:51.553Z,7.03
2018-11-13T18:45:23.966Z,6.40
2018-11-13T18:47:52.503Z,6.33
2018-11-13T18:50:24.612Z,6.50
2018-11-13T18:52:54.274Z,5.67
2018-11-13T18:55:22.927Z,5.03
2018-11-13T18:57:52.466Z,7.00
2018-11-13T19:00:22.513Z,4.93
2018-11-13T19:02:51.068Z,6.20
2018-11-13T19:05:20.075Z,5.67
2018-11-13T19:07:48.779Z,5.90
2018-11-13T19:10:25.750Z,4.43
2018-11-13T19:12:55.799Z,5.33
2018-11-13T19:15:24.715Z,4.53
2018-11-13T19:17:53.943Z,5.03
2018-11-13T19:20:23.810Z,5.27
2018-11-13T19:22:52.297Z,5.60
2018-11-13T19:25:24.520Z,5.10
2018-11-13T19:27:53.790Z,4.87
2018-11-13T19:30:22.802Z,5.00
2018-11-13T19:32:51.366Z,5.10
2018-11-13T19:35:20.535Z,5.00
2018-11-13T19:37:49.255Z,4.90
2018-11-13T19:40:20.359Z,4.20
2018-11-13T19:42:49.687Z,5.00
2018-11-13T19:45:18.672Z,4.83
2018-11-13T19:47:47.251Z,5.67
2018-11-13T19:50:17.538Z,5.53
2018-11-13T19:52:46.101Z,5.67
2018-11-13T19:55:15.800Z,5.60
2018-11-13T19:57:45.109Z,5.90
2018-11-13T20:00:18.358Z,6.00
2018-11-13T20:02:47.719Z,5.43
2018-11-13T20:05:16.310Z,6.00
2018-11-13T20:07:45.073Z,7.00
2018-11-13T20:10:22.032Z,6.30
2018-11-13T20:12:51.357Z,6.40
2018-11-13T20:15:20.645Z,5.90
2018-11-13T20:17:49.202Z,6.30
2018-11-13T20:20:21.001Z,6.13
2018-11-13T20:22:50.305Z,5.30
2018-11-13T20:25:20.433Z,5.73
2018-11-13T20:27:49.003Z,5.17
2018-11-13T20:30:27.961Z,5.60
2018-11-13T20:32:56.530Z,5.97
2018-11-13T20:35:25.756Z,6.47
2018-11-13T20:37:55.016Z,6.77
2018-11-13T20:40:26.977Z,5.83
2018-11-13T20:42:56.923Z,5.13
2018-11-13T20:45:25.476Z,5.57
2018-11-13T20:47:54.195Z,5.30
2018-11-13T20:50:24.219Z,5.60
2018-11-13T20:52:52.827Z,5.27
2018-11-13T20:55:21.511Z,5.20
2018-11-13T20:57:50.102Z,5.27
2018-11-13T21:00:22.085Z,6.33
2018-11-13T21:02:50.915Z,6.10
2018-11-13T21:05:19.687Z,6.47
2018-11-13T21:07:48.316Z,6.53
2018-11-13T21:10:20.719Z,5.50
2018-11-13T21:12:50.168Z,5.00
2018-11-13T21:15:19.854Z,5.00
2018-11-13T21:17:48.560Z,5.53
2018-11-13T21:20:18.342Z,6.27
2018-11-13T21:22:47.054Z,6.20
2018-11-13T21:25:19.180Z,7.10
2018-11-13T21:27:47.563Z,5.97
2018-11-13T21:30:18.945Z,6.93
2018-11-13T21:32:48.276Z,7.70
2018-11-13T21:35:17.109Z,7.00
2018-11-13T21:37:47.065Z,7.87
2018-11-13T21:40:17.668Z,7.23
2018-11-13T21:42:47.010Z,6.70
2018-11-13T21:45:16.216Z,6.70
2018-11-13T21:47:44.978Z,5.70
2018-11-13T21:50:15.360Z,6.70
2018-11-13T21:52:45.295Z,6.53
2018-11-13T21:55:15.648Z,6.73
2018-11-13T21:57:44.470Z,6.07
2018-11-13T22:00:26.045Z,5.97
2018-11-13T22:02:58.423Z,5.70
2018-11-13T22:05:28.083Z,6.00
2018-11-13T22:07:56.710Z,5.80
2018-11-13T22:10:25.232Z,6.10
2018-11-13T22:12:54.138Z,5.80
2018-11-13T22:15:23.664Z,5.67
2018-11-13T22:17:52.326Z,6.00
2018-11-13T22:20:21.665Z,5.23
2018-11-13T22:22:51.690Z,5.10
2018-11-13T22:25:21.959Z,5.73
2018-11-13T22:27:51.703Z,5.87
2018-11-13T22:30:21.715Z,5.00
2018-11-13T22:32:50.508Z,5.40
2018-11-13T22:35:20.844Z,6.27
2018-11-13T22:37:49.528Z,5.40
2018-11-13T22:40:19.410Z,5.10
2018-11-13T22:42:48.426Z,5.00
2018-11-13T22:45:18.658Z,5.03
2018-11-13T22:47:47.228Z,5.73
2018-11-13T22:50:19.817Z,5.63
2018-11-13T22:52:48.713Z,5.83
2018-11-13T22:55:17.688Z,5.37
2018-11-13T22:57:47.222Z,5.70
2018-11-13T23:00:18.632Z,5.30
2018-11-13T23:02:48.887Z,5.27
2018-11-13T23:05:17.437Z,5.83
2018-11-13T23:07:45.981Z,5.17
2018-11-13T23:10:15.337Z,4.90
2018-11-13T23:12:44.455Z,5.77
2018-11-13T23:15:16.675Z,5.10
2018-11-13T23:17:45.510Z,4.90
2018-11-13T23:20:15.806Z,4.63
2018-11-13T23:22:44.357Z,5.03
2018-11-13T23:25:15.027Z,5.50
2018-11-13T23:27:44.594Z,4.03
2018-11-13T23:30:16.376Z,4.90
2018-11-13T23:32:45.305Z,4.30
2018-11-13T23:35:14.508Z,4.70
2018-11-13T23:37:44.319Z,4.73
2018-11-13T23:40:14.442Z,4.10
2018-11-13T23:42:43.326Z,5.03
2018-11-13T23:45:12.924Z,5.40
2018-11-13T23:47:41.931Z,4.53
2018-11-13T23:50:11.550Z,4.53
2018-11-13T23:52:40.447Z,4.63
2018-11-13T23:55:10.850Z,4.40
2018-11-13T23:57:39.953Z,4.40
